Time;durP1;ratioP1;P1;durP2;ratioP2;P2;SDS_P1;SDS_P2;PMS_P1;PMS_P2;Temp;Humidity;BMP_temperature;BMP_pressure;BME280_temperature;BME280_humidity;BME280_pressure;Samples;Min_cycle;Max_cycle;Signal;HPM_P1;HPM_P2
2023/12/08 00:00:19;;;;;;;9.15;5.45;;;1.40;99.90;;;0.31;100.00;96693.41;5013407;28;20025;-36
2023/12/08 00:02:44;;;;;;;9.52;5.55;;;1.40;99.90;;;0.30;100.00;96699.44;5012132;28;20610;-36
2023/12/08 00:05:10;;;;;;;10.27;6.15;;;1.40;99.90;;;0.30;100.00;96701.19;5009906;28;20041;-36
2023/12/08 00:07:36;;;;;;;11.25;5.88;;;1.30;99.90;;;0.30;100.00;96707.22;5012308;28;20129;-36
2023/12/08 00:10:03;;;;;;;10.27;5.47;;;1.30;99.90;;;0.28;100.00;96703.78;5009753;28;20656;-36
2023/12/08 00:12:28;;;;;;;10.88;6.00;;;1.30;99.90;;;0.28;100.00;96703.78;5010448;28;20033;-36
2023/12/08 00:14:54;;;;;;;10.18;5.60;;;1.30;99.90;;;0.27;100.00;96677.88;5010985;28;20095;-36
2023/12/08 00:17:20;;;;;;;9.70;5.13;;;1.30;99.90;;;0.29;100.00;96678.75;5013764;28;20025;-35
2023/12/08 00:19:45;;;;;;;10.20;5.75;;;1.30;99.90;;;0.31;100.00;96658.84;5006261;28;20112;-35
2023/12/08 00:22:11;;;;;;;9.65;5.95;;;1.30;99.90;;;0.34;100.00;96631.16;5007434;28;20486;-35
2023/12/08 00:24:37;;;;;;;9.00;5.50;;;1.30;99.90;;;0.05;100.00;96587.28;5010626;28;20034;-36
2023/12/08 00:27:04;;;;;;;10.85;6.15;;;1.40;99.90;;;0.36;100.00;96634.56;5008818;28;20037;-36
2023/12/08 00:29:29;;;;;;;7.22;5.05;;;1.40;99.90;;;0.40;100.00;96606.88;5013915;28;20026;-36
2023/12/08 00:31:55;;;;;;;9.07;5.15;;;1.40;99.90;;;0.44;100.00;96597.31;5010618;28;20361;-36
2023/12/08 00:34:21;;;;;;;9.65;6.07;;;1.40;99.90;;;0.43;100.00;96632.78;5017192;28;20302;-36
2023/12/08 00:36:47;;;;;;;9.77;5.93;;;1.40;99.90;;;0.41;100.00;96642.28;5011981;28;20041;-36
2023/12/08 00:39:12;;;;;;;11.25;6.43;;;1.40;99.90;;;0.45;100.00;96597.31;5014989;28;20057;-36
2023/12/08 00:41:38;;;;;;;11.57;5.78;;;1.40;99.90;;;0.48;100.00;96602.44;5017518;28;20120;-36
2023/12/08 00:44:04;;;;;;;10.43;5.88;;;1.50;99.90;;;0.50;100.00;96574.78;4999045;28;20072;-36
2023/12/08 00:46:31;;;;;;;10.68;6.63;;;1.50;99.90;;;0.49;100.00;96582.59;5014139;28;20041;-36
2023/12/08 00:48:56;;;;;;;11.98;7.20;;;1.50;99.90;;;0.45;100.00;96614.59;5009546;28;20695;-35
2023/12/08 00:51:22;;;;;;;12.13;6.90;;;1.50;99.90;;;0.43;100.00;96614.63;5012841;28;20040;-36
2023/12/08 00:53:48;;;;;;;8.57;5.15;;;1.50;99.90;;;0.46;100.00;96612.00;5017172;28;20045;-36
2023/12/08 00:56:14;;;;;;;9.90;5.72;;;1.50;99.90;;;0.46;100.00;96626.69;5012393;28;20025;-35
2023/12/08 00:58:40;;;;;;;10.38;5.95;;;1.40;99.90;;;0.42;100.00;96636.25;5010025;28;20033;-36
2023/12/08 01:01:06;;;;;;;10.35;5.90;;;1.40;99.90;;;0.38;100.00;96632.81;5009866;28;20299;-36
2023/12/08 01:03:31;;;;;;;10.00;5.82;;;1.40;99.90;;;0.39;100.00;96631.09;5010968;28;20112;-37
2023/12/08 01:05:57;;;;;;;9.63;5.30;;;1.40;99.90;;;0.38;100.00;96612.06;5014009;28;20057;-36
2023/12/08 01:08:23;;;;;;;11.68;5.90;;;1.40;99.90;;;0.39;100.00;96597.38;5008217;28;20061;-37
2023/12/08 01:10:49;;;;;;;8.52;5.10;;;1.40;99.90;;;0.43;100.00;96587.81;5008561;28;20438;-36
2023/12/08 01:13:14;;;;;;;8.45;5.57;;;1.40;99.90;;;0.45;100.00;96580.88;4994108;28;20394;-36
2023/12/08 01:15:40;;;;;;;6.80;4.78;;;1.40;99.90;;;0.49;100.00;96559.22;5013397;28;20037;-37
2023/12/08 01:18:06;;;;;;;9.55;5.53;;;1.50;99.90;;;0.51;100.00;96539.31;5011341;28;20183;-36
2023/12/08 01:20:32;;;;;;;9.50;5.55;;;1.50;99.90;;;0.53;100.00;96524.59;5017124;28;20269;-37
2023/12/08 01:22:57;;;;;;;9.15;5.60;;;1.50;99.90;;;0.46;100.00;96530.72;5014442;28;20470;-36
2023/12/08 01:25:23;;;;;;;8.25;5.03;;;1.50;99.90;;;0.50;100.00;96554.03;5014651;28;20028;-36
2023/12/08 01:27:49;;;;;;;10.23;5.55;;;1.50;99.90;;;0.49;100.00;96578.25;5012999;28;20493;-37
2023/12/08 01:30:14;;;;;;;10.52;6.13;;;1.50;99.90;;;0.51;100.00;96597.25;5013191;28;20026;-36
2023/12/08 01:32:40;;;;;;;7.63;5.07;;;1.50;99.90;;;0.55;100.00;96598.06;5011961;28;20587;-36
2023/12/08 01:35:06;;;;;;;8.93;4.97;;;1.50;99.90;;;0.55;100.00;96596.31;5014827;28;20312;-37
2023/12/08 01:37:32;;;;;;;9.18;5.10;;;1.60;99.90;;;0.54;100.00;96597.22;5013463;28;20060;-36
2023/12/08 01:39:57;;;;;;;9.00;4.90;;;1.50;99.90;;;0.58;100.00;96592.84;5015025;28;20071;-37
2023/12/08 01:42:23;;;;;;;8.68;4.88;;;1.60;99.90;;;0.62;100.00;96583.31;4986245;28;20029;-37
2023/12/08 01:44:49;;;;;;;7.10;4.20;;;1.60;99.90;;;0.62;100.00;96567.75;5010197;28;20072;-37
2023/12/08 01:47:16;;;;;;;8.02;4.45;;;1.60;99.90;;;0.64;100.00;96560.78;4997355;28;20399;-36
2023/12/08 01:49:42;;;;;;;8.40;4.85;;;1.60;99.90;;;0.52;100.00;96548.81;5014407;28;20068;-37
2023/12/08 01:52:09;;;;;;;7.72;4.55;;;1.60;99.90;;;0.62;100.00;96572.94;5003127;28;20045;-36
2023/12/08 01:54:35;;;;;;;8.13;4.78;;;1.60;99.90;;;0.62;100.00;96559.94;5014300;28;20532;-37
2023/12/08 01:57:02;;;;;;;9.43;4.55;;;1.60;99.90;;;0.50;100.00;96542.78;5010072;28;20388;-37
2023/12/08 01:59:30;;;;;;;8.95;4.63;;;1.60;99.90;;;0.62;100.00;96560.81;5010251;28;20600;-36
2023/12/08 02:01:56;;;;;;;7.20;4.72;;;1.60;99.90;;;0.65;100.00;96567.72;5011856;28;20156;-36
2023/12/08 02:04:22;;;;;;;7.20;4.80;;;1.60;99.90;;;0.60;100.00;96569.50;5013083;28;20029;-37
2023/12/08 02:06:47;;;;;;;8.80;4.40;;;1.60;99.90;;;0.63;100.00;96561.66;5015138;28;20536;-37
2023/12/08 02:09:13;;;;;;;7.63;4.43;;;1.60;99.90;;;0.65;100.00;96563.38;5012685;28;20441;-36
2023/12/08 02:11:39;;;;;;;7.45;4.28;;;1.60;99.90;;;0.63;100.00;96548.69;5012390;28;20559;-37
2023/12/08 02:14:05;;;;;;;6.22;3.72;;;1.60;99.90;;;0.71;100.00;96557.25;5014433;28;20049;-37
2023/12/08 02:16:43;;;;;;;8.70;4.20;;;1.70;99.90;;;0.72;100.00;96565.03;5015865;28;20021;-37
2023/12/08 02:19:12;;;;;;;10.95;4.25;;;1.70;99.90;;;0.74;100.00;96575.38;5013293;28;20116;-36
2023/12/08 02:21:38;;;;;;;6.88;3.85;;;1.70;99.90;;;0.76;100.00;96571.88;5015418;28;20561;-37
2023/12/08 02:24:04;;;;;;;5.55;3.80;;;1.70;99.90;;;0.74;100.00;96570.19;4997361;28;20038;-37
2023/12/08 02:26:30;;;;;;;6.57;4.32;;;1.70;99.90;;;0.79;100.00;96571.00;4997608;28;20091;-37
2023/12/08 02:28:56;;;;;;;6.25;3.75;;;1.70;99.90;;;0.78;100.00;96564.09;5014382;28;20478;-36
2023/12/08 02:31:35;;;;;;;6.80;4.00;;;1.80;99.90;;;0.78;100.00;96561.50;4994787;28;20033;-36
2023/12/08 02:34:02;;;;;;;5.63;3.30;;;1.70;99.90;;;0.67;100.00;96538.25;5012875;28;20031;-37
2023/12/08 02:36:28;;;;;;;5.88;3.35;;;1.70;99.90;;;0.82;100.00;96559.72;4994789;28;20025;-37
2023/12/08 02:38:55;;;;;;;6.70;3.72;;;1.70;99.90;;;0.82;100.00;96552.78;5009408;28;20520;-37
2023/12/08 02:41:21;;;;;;;5.97;3.90;;;1.80;99.90;;;0.83;100.00;96557.09;5007061;28;20104;-37
2023/12/08 02:43:47;;;;;;;6.57;3.90;;;1.80;99.90;;;0.82;100.00;96559.72;4974658;28;20452;-37
2023/12/08 02:46:13;;;;;;;8.73;3.95;;;1.70;99.90;;;0.78;100.00;96551.13;5012415;28;20162;-36
2023/12/08 02:48:38;;;;;;;7.78;3.83;;;1.80;99.90;;;0.86;100.00;96561.38;4992814;28;20022;-36
2023/12/08 02:51:04;;;;;;;7.10;3.90;;;1.80;99.90;;;0.86;100.00;96554.50;5011656;28;20287;-35
2023/12/08 02:53:30;;;;;;;7.00;3.80;;;1.80;99.90;;;0.87;100.00;96552.75;4999305;28;20084;-36
2023/12/08 02:55:56;;;;;;;5.65;3.63;;;1.80;99.90;;;0.85;100.00;96544.97;5013076;28;20075;-36
2023/12/08 02:58:21;;;;;;;5.43;3.55;;;1.80;99.90;;;0.75;100.00;96530.38;5014222;28;20835;-36
2023/12/08 03:00:47;;;;;;;6.07;3.58;;;1.80;99.90;;;0.88;100.00;96544.94;5011855;28;20057;-36
2023/12/08 03:03:13;;;;;;;7.30;3.42;;;1.80;99.90;;;0.88;100.00;96534.56;5011294;28;20022;-36
2023/12/08 03:05:38;;;;;;;5.65;3.97;;;1.80;99.90;;;0.88;100.00;96531.97;5015132;28;20456;-36
2023/12/08 03:08:04;;;;;;;6.85;3.75;;;1.80;99.90;;;0.89;100.00;96527.63;4997502;28;20026;-36
2023/12/08 03:10:30;;;;;;;7.20;3.92;;;1.90;99.90;;;0.90;100.00;96517.22;4997068;28;20412;-36
2023/12/08 03:12:55;;;;;;;6.95;3.50;;;1.90;99.90;;;0.90;100.00;96504.25;5011560;28;20025;-36
2023/12/08 03:15:23;;;;;;;6.00;3.17;;;1.90;99.90;;;0.91;100.00;96507.69;5009011;28;20044;-36
2023/12/08 03:17:48;;;;;;;6.97;3.67;;;1.80;99.90;;;0.94;100.00;96513.69;5014147;28;20560;-36
2023/12/08 03:20:14;;;;;;;6.28;3.13;;;1.90;99.90;;;0.92;100.00;96504.22;5015645;28;20025;-36
2023/12/08 03:22:40;;;;;;;4.80;3.00;;;1.90;99.90;;;0.88;100.00;96507.72;5012910;28;20756;-36
2023/12/08 03:25:06;;;;;;;5.40;3.33;;;1.90;99.90;;;0.91;100.00;96505.09;5017816;28;20393;-35
2023/12/08 03:27:31;;;;;;;7.72;3.70;;;1.90;99.90;;;0.91;100.00;96507.69;5013496;28;20163;-35
2023/12/08 03:29:57;;;;;;;5.78;3.00;;;1.90;99.90;;;0.88;100.00;96493.03;5012191;28;20041;-35
2023/12/08 03:32:23;;;;;;;5.75;3.17;;;1.90;99.90;;;0.95;100.00;96518.03;5009306;28;20041;-36
2023/12/08 03:34:48;;;;;;;4.57;3.10;;;1.90;99.90;;;0.96;100.00;96516.28;5011308;28;20448;-36
2023/12/08 03:37:14;;;;;;;4.68;3.00;;;1.90;99.90;;;0.95;100.00;96497.25;5014954;28;20041;-36
2023/12/08 03:39:40;;;;;;;5.63;2.92;;;1.90;99.90;;;1.02;100.00;96516.19;5015696;28;20064;-35
2023/12/08 03:42:05;;;;;;;5.43;3.28;;;2.00;99.90;;;1.05;100.00;96523.09;5013648;28;20057;-36
2023/12/08 03:44:31;;;;;;;5.28;3.03;;;2.00;99.90;;;1.06;100.00;96532.56;5017275;28;20034;-35
2023/12/08 03:46:57;;;;;;;4.47;2.90;;;2.00;99.90;;;1.10;100.00;96522.13;5014322;28;20057;-35
2023/12/08 03:49:22;;;;;;;11.40;3.58;;;2.00;99.90;;;1.12;100.00;96537.69;5012211;28;20497;-36
2023/12/08 03:51:48;;;;;;;6.60;3.08;;;2.10;99.90;;;1.15;100.00;96535.06;5012240;28;20045;-37
2023/12/08 03:54:14;;;;;;;4.80;3.10;;;2.10;99.90;;;1.18;100.00;96537.59;5019499;28;20511;-36
2023/12/08 03:56:39;;;;;;;6.78;3.42;;;2.10;99.90;;;1.20;100.00;96525.44;5015116;28;20041;-36
2023/12/08 03:59:05;;;;;;;4.70;2.85;;;2.10;99.90;;;1.18;100.00;96526.38;5015868;28;20068;-36
2023/12/08 04:01:31;;;;;;;3.90;2.70;;;2.10;99.90;;;1.17;100.00;96524.63;5007618;28;20073;-36
2023/12/08 04:03:56;;;;;;;5.97;2.97;;;2.10;99.90;;;1.16;100.00;96531.56;5013954;28;20078;-36
2023/12/08 04:06:22;;;;;;;5.95;3.10;;;2.10;99.90;;;1.16;100.00;96528.97;5013916;28;21299;-36
2023/12/08 04:08:48;;;;;;;4.07;2.90;;;2.10;99.90;;;1.17;100.00;96537.63;5009658;28;20076;-36
2023/12/08 04:11:13;;;;;;;5.35;3.08;;;2.10;99.90;;;1.17;100.00;96535.91;5014620;28;20045;-36
2023/12/08 04:13:40;;;;;;;5.43;3.08;;;2.10;99.90;;;1.20;100.00;96538.44;5015300;28;20046;-36
2023/12/08 04:16:06;;;;;;;5.53;3.58;;;2.10;99.90;;;1.24;100.00;96544.44;5015540;28;20033;-36
2023/12/08 04:18:32;;;;;;;6.43;3.47;;;2.20;99.90;;;1.28;100.00;96554.78;5009919;28;20494;-36
2023/12/08 04:20:58;;;;;;;6.38;3.67;;;2.20;99.90;;;1.30;100.00;96560.81;4994562;28;20263;-36
2023/12/08 04:23:25;;;;;;;4.85;3.30;;;2.20;99.90;;;1.32;100.00;96553.00;5010775;28;20042;-36
2023/12/08 04:25:50;;;;;;;7.57;3.72;;;2.30;99.90;;;1.37;100.00;96552.97;5016234;28;20021;-36
2023/12/08 04:28:16;;;;;;;6.85;3.25;;;2.30;99.90;;;1.37;100.00;96543.41;5015354;28;20410;-36
2023/12/08 04:30:42;;;;;;;5.30;3.45;;;2.30;99.90;;;1.42;100.00;96541.63;5013535;28;20127;-36
2023/12/08 04:33:08;;;;;;;6.63;3.38;;;2.30;99.90;;;1.42;100.00;96541.63;5000065;28;20367;-37
2023/12/08 04:35:34;;;;;;;7.13;3.75;;;2.40;99.90;;;1.45;100.00;96545.91;5011219;28;20037;-36
2023/12/08 04:38:00;;;;;;;9.75;3.13;;;2.40;99.90;;;1.46;100.00;96545.03;5012954;28;20036;-36
2023/12/08 04:40:26;;;;;;;6.00;3.60;;;2.40;99.90;;;1.51;100.00;96551.88;5005025;28;20149;-36
2023/12/08 04:42:52;;;;;;;5.18;3.00;;;2.40;99.90;;;1.52;100.00;96550.13;5013898;28;20108;-36
2023/12/08 04:45:18;;;;;;;7.32;3.45;;;2.40;99.90;;;1.52;100.00;96544.91;5010749;28;20080;-36
2023/12/08 04:47:43;;;;;;;6.85;3.33;;;2.40;99.90;;;1.48;100.00;96535.47;5012823;28;20129;-36
2023/12/08 04:50:09;;;;;;;5.47;3.55;;;2.40;99.90;;;1.45;100.00;96527.72;5009356;28;20849;-36
2023/12/08 04:52:35;;;;;;;6.38;3.40;;;2.40;99.90;;;1.42;100.00;96527.75;5007317;28;20044;-36
2023/12/08 04:55:04;;;;;;;4.65;3.25;;;2.40;99.90;;;1.37;100.00;96521.78;5013911;28;20504;-36
2023/12/08 04:57:32;;;;;;;5.97;3.25;;;2.30;99.90;;;1.35;100.00;96516.59;5010109;28;20316;-36
2023/12/08 04:59:58;;;;;;;5.43;3.55;;;2.30;99.90;;;1.37;100.00;96504.44;5013419;28;20038;-36
2023/12/08 05:02:24;;;;;;;5.85;3.17;;;2.30;99.90;;;1.34;100.00;96505.34;5008379;28;20120;-36
2023/12/08 05:04:50;;;;;;;5.68;3.35;;;2.30;99.90;;;1.34;100.00;96492.34;5013060;28;20026;-36
2023/12/08 05:07:15;;;;;;;7.10;3.97;;;2.40;99.90;;;1.29;100.00;96491.59;5012502;28;20030;-36
2023/12/08 05:09:41;;;;;;;6.60;4.07;;;2.40;99.90;;;1.36;100.00;96488.88;5009036;28;20060;-36
2023/12/08 05:12:07;;;;;;;6.03;3.80;;;2.40;99.90;;;1.32;100.00;96488.06;5010683;28;20092;-37
2023/12/08 05:14:32;;;;;;;6.03;3.90;;;2.30;99.90;;;1.31;100.00;96488.94;5016567;28;20060;-36
2023/12/08 05:16:58;;;;;;;6.28;3.90;;;2.30;99.90;;;1.31;100.00;96488.94;5011898;28;20033;-36
2023/12/08 05:19:23;;;;;;;5.60;3.83;;;2.30;99.90;;;1.32;100.00;96488.06;5013543;28;20458;-36
2023/12/08 05:21:49;;;;;;;6.68;3.55;;;2.30;99.90;;;1.34;100.00;96500.13;5013362;28;20057;-36
2023/12/08 05:24:15;;;;;;;5.70;3.80;;;2.30;99.90;;;1.35;100.00;96493.22;5016202;28;20120;-36
2023/12/08 05:26:40;;;;;;;8.90;3.92;;;2.30;99.90;;;1.36;100.00;96488.88;5011087;28;20076;-36
2023/12/08 05:29:06;;;;;;;7.28;4.00;;;2.30;99.90;;;1.38;100.00;96494.91;5014237;28;20022;-36
2023/12/08 05:31:32;;;;;;;13.85;4.30;;;2.30;99.90;;;1.41;100.00;96494.88;5010095;28;20068;-35
2023/12/08 05:33:58;;;;;;;8.10;4.13;;;2.30;99.90;;;1.40;100.00;96496.63;5008202;28;20044;-36
2023/12/08 05:36:23;;;;;;;6.15;3.72;;;2.40;99.90;;;1.41;100.00;96495.72;5010133;28;20029;-36
2023/12/08 05:38:49;;;;;;;6.55;3.90;;;2.30;99.90;;;1.42;100.00;96494.84;5014047;28;20037;-36
2023/12/08 05:41:15;;;;;;;6.32;3.53;;;2.30;99.90;;;1.46;100.00;96487.88;5012926;28;20112;-36
2023/12/08 05:43:40;;;;;;;9.20;4.25;;;2.40;99.90;;;1.50;100.00;96499.91;5012139;28;20350;-36
2023/12/08 05:46:06;;;;;;;8.73;4.32;;;2.40;99.90;;;1.52;100.00;96501.59;5012840;28;20030;-37
2023/12/08 05:48:32;;;;;;;6.53;4.00;;;2.40;99.90;;;1.55;100.00;96492.91;5012839;28;20029;-36
2023/12/08 05:50:57;;;;;;;6.40;3.95;;;2.50;99.90;;;1.56;100.00;96507.59;5014589;28;20049;-37
2023/12/08 05:53:23;;;;;;;8.48;4.15;;;2.50;99.90;;;1.57;100.00;96504.13;5011860;28;20038;-36
2023/12/08 05:55:49;;;;;;;6.78;4.63;;;2.50;99.90;;;1.60;100.00;96505.81;5014583;28;20037;-37
2023/12/08 05:58:14;;;;;;;8.98;4.72;;;2.50;99.90;;;1.59;100.00;96506.72;5014853;28;20363;-37
2023/12/08 06:00:41;;;;;;;6.75;4.20;;;2.50;99.90;;;1.63;100.00;96490.19;5005902;28;20048;-37
2023/12/08 06:03:07;;;;;;;6.18;4.35;;;2.50;99.90;;;1.66;100.00;96513.53;5015101;28;20025;-37
2023/12/08 06:05:33;;;;;;;8.20;4.38;;;2.60;99.90;;;1.67;100.00;96508.31;5005035;28;21000;-37
2023/12/08 06:07:59;;;;;;;8.05;4.70;;;2.60;99.90;;;1.68;100.00;96510.00;5008669;28;20025;-37
2023/12/08 06:10:25;;;;;;;9.52;4.78;;;2.60;99.90;;;1.64;100.00;96508.34;5015174;28;20099;-37
2023/12/08 06:12:50;;;;;;;8.98;4.75;;;2.60;99.90;;;1.67;100.00;96520.44;5015950;28;20477;-37
2023/12/08 06:15:16;;;;;;;7.60;4.53;;;2.60;99.90;;;1.68;100.00;96501.38;5010099;28;20033;-37
2023/12/08 06:17:42;;;;;;;10.00;4.60;;;2.60;99.90;;;1.70;100.00;96507.41;5012534;28;20155;-37
2023/12/08 06:20:10;;;;;;;9.75;4.53;;;2.60;99.90;;;1.71;100.00;96507.38;5000689;28;20038;-37
2023/12/08 06:22:39;;;;;;;6.75;4.13;;;2.60;99.90;;;1.73;100.00;96501.31;5008226;28;20179;-37
2023/12/08 06:25:05;;;;;;;9.43;4.70;;;2.60;99.90;;;1.68;100.00;96499.63;5012992;28;22574;-37
2023/12/08 06:27:43;;;;;;;8.90;4.60;;;2.60;99.90;;;1.66;100.00;96514.38;5013774;28;20501;-36
2023/12/08 06:30:09;;;;;;;9.25;4.72;;;2.60;99.90;;;1.66;100.00;96509.19;5022561;23;20393;-36
2023/12/08 06:32:35;;;;;;;6.80;4.60;;;2.60;99.90;;;1.67;100.00;96500.50;5045651;28;20611;-37
2023/12/08 06:35:01;;;;;;;8.70;4.45;;;2.60;99.90;;;1.70;100.00;96510.84;5051510;28;20119;-37
2023/12/08 06:37:27;;;;;;;8.95;4.25;;;2.60;99.90;;;1.68;100.00;96511.75;5051273;28;20495;-35
2023/12/08 06:39:52;;;;;;;8.80;4.50;;;2.60;99.90;;;1.69;100.00;96510.91;5050232;28;20037;-35
2023/12/08 06:42:18;;;;;;;9.85;5.10;;;2.60;99.90;;;1.66;100.00;96510.94;5026482;28;20044;-35
2023/12/08 06:44:44;;;;;;;7.80;4.40;;;2.60;99.90;;;1.64;100.00;96508.34;5030820;28;20057;-35
2023/12/08 06:47:09;;;;;;;9.10;4.85;;;2.60;99.90;;;1.62;100.00;96517.06;5036221;28;20047;-34
2023/12/08 06:49:35;;;;;;;8.77;5.03;;;2.50;99.90;;;1.60;100.00;96508.41;5036569;28;20021;-34
2023/12/08 06:52:03;;;;;;;8.50;4.50;;;2.60;99.90;;;1.59;100.00;96509.31;5029567;28;20028;-36
2023/12/08 06:54:28;;;;;;;7.18;4.57;;;2.50;99.90;;;1.60;100.00;96518.81;5033696;28;20033;-35
2023/12/08 06:56:54;;;;;;;10.02;5.07;;;2.50;99.90;;;1.65;100.00;96520.47;5029040;28;20451;-35
2023/12/08 06:59:20;;;;;;;7.45;4.50;;;2.50;99.90;;;1.60;100.00;96511.91;5033431;28;20041;-36
2023/12/08 07:01:45;;;;;;;8.13;4.63;;;2.60;99.90;;;1.63;100.00;96518.78;5034216;28;20508;-36
2023/12/08 07:04:11;;;;;;;11.75;5.35;;;2.50;99.90;;;1.60;100.00;96516.22;5033525;28;20044;-35
2023/12/08 07:06:37;;;;;;;7.32;4.90;;;2.50;99.90;;;1.58;100.00;96508.47;5032106;28;20123;-36
2023/12/08 07:09:03;;;;;;;7.45;4.80;;;2.50;99.90;;;1.53;100.00;96507.69;5034422;28;20017;-36
2023/12/08 07:11:28;;;;;;;9.35;5.95;;;2.50;99.90;;;1.54;100.00;96514.56;5029549;28;20037;-36
2023/12/08 07:13:54;;;;;;;8.27;4.65;;;2.50;99.90;;;1.54;100.00;96506.78;5032586;28;20037;-37
2023/12/08 07:16:20;;;;;;;9.13;5.28;;;2.50;99.90;;;1.52;100.00;96498.16;5030807;28;20378;-37
2023/12/08 07:18:45;;;;;;;12.52;4.85;;;2.50;99.90;;;1.55;100.00;96500.72;5036862;28;20029;-37
2023/12/08 07:21:11;;;;;;;8.98;4.90;;;2.50;99.90;;;1.56;100.00;96510.19;5036332;28;20493;-36
2023/12/08 07:23:37;;;;;;;9.73;4.85;;;2.50;99.90;;;1.57;100.00;96514.53;5036134;28;20032;-37
2023/12/08 07:26:04;;;;;;;8.75;4.75;;;2.50;99.90;;;1.58;100.00;96511.06;5033279;28;20494;-37
2023/12/08 07:28:30;;;;;;;12.40;5.03;;;2.50;99.90;;;1.65;100.00;96517.88;5033344;28;20033;-37
2023/12/08 07:30:56;;;;;;;10.73;4.70;;;2.50;99.90;;;1.69;100.00;96516.09;5033318;28;20410;-37
2023/12/08 07:33:21;;;;;;;9.85;5.03;;;2.60;99.90;;;1.73;100.00;96520.34;5034356;28;20037;-37
2023/12/08 07:35:47;;;;;;;7.60;4.25;;;2.60;99.90;;;1.82;100.00;96512.41;5034803;28;20060;-36
2023/12/08 07:38:13;;;;;;;10.48;4.07;;;2.70;99.90;;;1.80;100.00;96506.38;5034001;28;20060;-36
2023/12/08 07:40:38;;;;;;;7.47;4.15;;;2.80;99.90;;;1.98;100.00;96515.59;5030585;28;20040;-36
2023/12/08 07:43:04;;;;;;;7.78;4.03;;;2.80;99.90;;;2.05;100.00;96508.56;5033615;28;20520;-36
2023/12/08 07:45:30;;;;;;;6.15;4.20;;;2.90;99.90;;;2.13;100.00;96508.41;5028762;28;20064;-36
2023/12/08 07:47:56;;;;;;;6.95;4.15;;;3.00;99.90;;;2.17;100.00;96515.25;5035190;28;20311;-37
2023/12/08 07:50:22;;;;;;;7.10;3.90;;;3.00;99.90;;;2.17;100.00;96505.75;5035174;28;20047;-37
2023/12/08 07:52:47;;;;;;;10.60;4.47;;;3.10;99.90;;;2.30;100.00;96506.38;5032248;28;20139;-37
2023/12/08 07:55:13;;;;;;;6.30;3.72;;;3.20;99.90;;;2.38;100.00;96506.22;5029732;28;20051;-37
2023/12/08 07:57:39;;;;;;;8.77;4.30;;;3.20;99.90;;;2.39;100.00;96506.19;5030436;28;20489;-37
2023/12/08 08:00:10;;;;;;;7.50;4.60;;;3.30;99.90;;;2.41;100.00;96503.56;5033643;28;20040;-37
2023/12/08 08:02:37;;;;;;;7.45;3.90;;;3.30;99.90;;;2.44;100.00;96514.78;5034335;28;20339;-36
2023/12/08 08:05:04;;;;;;;6.60;3.90;;;3.30;99.90;;;2.47;100.00;96512.09;5031516;28;20416;-36
2023/12/08 08:07:31;;;;;;;6.45;4.07;;;3.40;99.90;;;2.52;100.00;96506.81;5032875;28;20452;-35
2023/12/08 08:09:56;;;;;;;8.75;4.38;;;3.40;99.90;;;2.55;100.00;96517.19;5032124;28;20063;-36
2023/12/08 08:12:22;;;;;;;10.65;4.28;;;3.40;99.90;;;2.58;100.00;96511.03;5029904;28;20137;-36
2023/12/08 08:14:48;;;;;;;6.28;3.90;;;3.50;99.90;;;2.63;100.00;96517.88;5023135;28;20037;-36
2023/12/08 08:17:13;;;;;;;9.55;4.25;;;3.50;99.90;;;2.66;100.00;96516.97;5027791;28;20500;-36
2023/12/08 08:19:41;;;;;;;7.78;4.22;;;3.60;99.90;;;2.74;100.00;96522.84;5030702;28;20041;-36
2023/12/08 08:22:07;;;;;;;7.38;4.03;;;3.60;99.90;;;2.81;100.00;96529.66;5031923;28;20493;-37
2023/12/08 08:24:33;;;;;;;7.35;4.03;;;3.60;99.90;;;2.88;100.00;96524.34;5026721;28;20482;-37
2023/12/08 08:27:00;;;;;;;7.82;4.00;;;3.70;99.90;;;2.94;100.00;96532.84;5030973;28;20091;-36
2023/12/08 08:29:26;;;;;;;6.47;3.92;;;3.80;99.90;;;3.05;100.00;96540.44;5031595;28;20029;-37
2023/12/08 08:31:52;;;;;;;6.03;3.65;;;3.90;99.90;;;3.07;100.00;96530.88;4993569;28;1052238;-36
2023/12/08 08:34:19;;;;;;;5.78;3.28;;;3.90;99.90;;;3.19;100.00;96541.00;5032031;28;20033;-37
2023/12/08 08:36:44;;;;;;;7.05;3.88;;;4.00;99.90;;;3.26;100.00;96541.75;5024863;28;20520;-36
2023/12/08 08:39:10;;;;;;;5.28;3.47;;;4.10;99.90;;;3.33;100.00;96547.69;5032204;28;20037;-36
2023/12/08 08:41:36;;;;;;;5.38;3.38;;;4.20;99.90;;;3.37;100.00;96552.78;5027940;28;20111;-36
2023/12/08 08:44:02;;;;;;;6.03;3.60;;;4.20;99.90;;;3.40;100.00;96549.28;5030248;28;20029;-36
2023/12/08 08:46:28;;;;;;;5.82;3.35;;;4.30;99.90;;;3.49;100.00;96562.09;5029769;28;20037;-35
2023/12/08 08:48:54;;;;;;;8.52;3.30;;;4.30;99.90;;;3.52;100.00;96564.66;5032522;28;20124;-35
2023/12/08 08:51:21;;;;;;;5.68;3.20;;;4.40;99.90;;;3.44;100.00;96550.91;5033496;28;20029;-35
2023/12/08 08:53:49;;;;;;;6.70;2.83;;;4.40;99.90;;;3.59;100.00;96566.22;5031439;28;20064;-35
2023/12/08 08:56:16;;;;;;;4.80;3.08;;;4.40;99.90;;;3.63;100.00;96567.84;5029072;28;20087;-36
2023/12/08 08:58:42;;;;;;;5.13;2.90;;;4.40;99.90;;;3.67;100.00;96568.66;5031758;28;20591;-36
2023/12/08 09:01:07;;;;;;;5.15;2.90;;;4.50;99.90;;;3.70;100.00;96573.81;5028634;28;20686;-36
2023/12/08 09:03:33;;;;;;;4.80;3.00;;;4.50;99.90;;;3.74;100.00;96585.03;5034355;28;20025;-36
2023/12/08 09:05:59;;;;;;;5.28;2.88;;;4.60;99.90;;;3.77;100.00;96577.97;5032179;28;20035;-36
2023/12/08 09:08:24;;;;;;;4.88;3.05;;;4.60;99.90;;;3.83;100.00;96584.81;5028646;28;20043;-34
2023/12/08 09:10:50;;;;;;;4.68;3.08;;;4.60;99.90;;;3.86;100.00;96574.31;5026086;28;20036;-35
2023/12/08 09:13:16;;;;;;;6.35;3.15;;;4.70;99.90;;;3.86;100.00;96566.47;5028678;28;20041;-35
2023/12/08 09:15:43;;;;;;;4.35;2.97;;;4.70;99.90;;;3.90;100.00;96575.09;5029166;28;20098;-36
2023/12/08 09:18:09;;;;;;;6.20;2.95;;;4.70;99.90;;;3.93;100.00;96570.66;5031638;28;20043;-35
2023/12/08 09:20:36;;;;;;;6.15;3.13;;;4.70;99.90;;;3.86;100.00;96563.00;5031907;28;20037;-35
2023/12/08 09:23:02;;;;;;;5.38;3.53;;;4.80;99.90;;;3.87;100.00;96562.97;5029209;28;20556;-35
2023/12/08 09:25:28;;;;;;;6.68;3.30;;;4.80;99.90;;;3.98;100.00;96575.75;5028572;28;20029;-35
2023/12/08 09:27:54;;;;;;;6.40;3.58;;;4.90;99.90;;;4.01;100.00;96584.34;5033879;28;20033;-35
2023/12/08 09:30:20;;;;;;;5.05;3.33;;;4.90;99.90;;;4.06;100.00;96583.41;5031018;28;20036;-35
2023/12/08 09:32:45;;;;;;;7.47;3.30;;;4.90;99.90;;;4.09;100.00;96583.31;5031872;28;20131;-35
2023/12/08 09:35:11;;;;;;;7.10;3.80;;;4.90;99.90;;;4.12;100.00;96578.03;5030040;28;20037;-35
2023/12/08 09:37:37;;;;;;;7.78;3.75;;;4.90;99.90;;;4.13;100.00;96582.38;5023446;28;20427;-35
2023/12/08 09:40:05;;;;;;;7.57;4.47;;;5.00;99.90;;;4.13;100.00;96583.22;5037003;28;20659;-35
2023/12/08 09:42:56;;;;;;;8.13;4.45;;;5.00;99.90;;;4.16;100.00;96569.22;5030569;28;20122;-35
2023/12/08 09:45:22;;;;;;;9.18;4.65;;;5.00;99.90;;;4.18;100.00;96570.91;5028595;28;20032;-37
2023/12/08 09:47:51;;;;;;;7.53;4.63;;;5.00;99.90;;;4.18;100.00;96570.03;5027748;28;20035;-35
2023/12/08 09:50:18;;;;;;;7.50;4.50;;;5.00;99.90;;;4.18;100.00;96568.31;5047195;28;20029;-35
2023/12/08 09:52:44;;;;;;;8.88;5.25;;;5.00;99.90;;;4.13;100.00;96571.94;5033954;28;20323;-35
2023/12/08 09:55:10;;;;;;;8.80;4.97;;;5.00;99.90;;;4.24;100.00;96577.72;5026620;28;20497;-35
2023/12/08 09:57:37;;;;;;;7.97;4.50;;;5.10;99.90;;;4.25;100.00;96571.59;5022407;28;20040;-35
2023/12/08 10:00:13;;;;;;;8.23;5.32;;;5.10;99.90;;;4.29;100.00;96570.66;5024914;28;20036;-35
2023/12/08 10:02:40;;;;;;;9.35;5.95;;;5.10;99.90;;;4.31;100.00;96568.84;5024100;28;20028;-35
2023/12/08 10:05:08;;;;;;;13.80;5.55;;;5.20;99.90;;;4.26;100.00;96555.06;5024666;28;20456;-35
2023/12/08 10:07:35;;;;;;;8.68;4.63;;;5.20;99.90;;;4.43;100.00;96564.19;5021287;28;20132;-35
2023/12/08 10:10:02;;;;;;;11.20;5.50;;;5.20;99.90;;;4.49;100.00;96564.91;5024454;28;20509;-35
2023/12/08 10:12:28;;;;;;;9.43;5.22;;;5.30;99.90;;;4.47;100.00;96560.59;5030351;28;20509;-36
2023/12/08 10:14:58;;;;;;;7.72;4.85;;;5.40;99.90;;;4.54;100.00;96568.25;5031735;28;20038;-36
2023/12/08 10:17:25;;;;;;;8.45;4.57;;;5.40;99.90;;;4.59;100.00;96565.50;5035389;28;20025;-35
2023/12/08 10:19:53;;;;;;;6.22;3.92;;;5.40;99.90;;;4.60;100.00;96567.25;5038176;28;20448;-35